Yahata Maru — JL6477 — position and weather

sailwx.info

Track history (hours):
 
Tides and Currents Weather Stations Pressure Air Temp Water Temp Dewpoint Dewpoint Depression Visibility Wind Speed Wind Dir Waves Ship Positions

Yahata Maru

Last reported at 2016-Sep-24 01:21 UTC. Time now 2016-Sep-25 00:20 UTC.
Position N 34°34' E 138°37'.

Length 149 m; draft 4.7 m.

Type: Other ship. MMSI: 431400594.

Date/timePositionNaut miles runAvg speedWind from/ knotsBaromVisibWave heightAir tempDewpointWater temp
2016-Sep-24 01:21N 34°34' E 138°37'56 9.6
2016-Sep-23 19:33N 35°04' E 139°35'17 8.4
2016-Sep-23 17:33N 35°19' E 139°43'9 8.9
2016-Sep-23 16:34N 35°28' E 139°43'0 0.1
2016-Sep-23 15:31N 35°28' E 139°43'0 0.0
2016-Sep-23 13:32N 35°28' E 139°43'15 3.8
2016-Sep-23 09:33N 35°34' E 139°60'0 0.0
2016-Sep-23 06:33N 35°34' E 139°60'6 3.0
2016-Sep-23 04:33N 35°33' E 140°07'0 0.0
2016-Sep-23 03:30N 35°33' E 140°07'0 0.0
2016-Sep-23 02:33N 35°33' E 140°07'0 0.0
2016-Sep-23 01:33N 35°33' E 140°07'0 0.0
2016-Sep-23 00:33N 35°33' E 140°07'0 0.0
2016-Sep-22 23:33N 35°33' E 140°07'0 0.0
2016-Sep-22 20:33N 35°33' E 140°07'0 0.0
2016-Sep-22 12:24N 35°33' E 140°07'  
2016-Sep-15 20:33N 34°36' E 134°53'18 9.0
2016-Sep-15 18:33N 34°37' E 135°15'8 1.2
2016-Sep-15 12:32N 34°43' E 135°21'0 0.0
2016-Sep-15 11:34N 34°43' E 135°21'27 3.9
2016-Sep-15 04:31N 34°20' E 135°02'7 7.2
2016-Sep-15 03:33N 34°14' E 134°60'  
Track history (hours):
 
Tides and Currents Weather Stations Pressure Air Temp Water Temp Dewpoint Dewpoint Depression Visibility Wind Speed Wind Dir Waves Ship Positions

Yahata Maru

Last reported at 2016-Sep-24 01:21 UTC. Time now 2016-Sep-25 00:20 UTC.
Position N 34°34' E 138°37'.

Length 149 m; draft 4.7 m.

Type: Other ship. MMSI: 431400594.

Date/timePositionNaut miles runAvg speedWind from/ knotsBaromVisibWave heightAir tempDewpointWater temp
2016-Sep-24 01:21N 34°34' E 138°37'56 9.6
2016-Sep-23 19:33N 35°04' E 139°35'17 8.4
2016-Sep-23 17:33N 35°19' E 139°43'9 8.9
2016-Sep-23 16:34N 35°28' E 139°43'0 0.1
2016-Sep-23 15:31N 35°28' E 139°43'0 0.0
2016-Sep-23 13:32N 35°28' E 139°43'15 3.8
2016-Sep-23 09:33N 35°34' E 139°60'0 0.0
2016-Sep-23 06:33N 35°34' E 139°60'6 3.0
2016-Sep-23 04:33N 35°33' E 140°07'0 0.0
2016-Sep-23 03:30N 35°33' E 140°07'0 0.0
2016-Sep-23 02:33N 35°33' E 140°07'0 0.0
2016-Sep-23 01:33N 35°33' E 140°07'0 0.0
2016-Sep-23 00:33N 35°33' E 140°07'0 0.0
2016-Sep-22 23:33N 35°33' E 140°07'0 0.0
2016-Sep-22 20:33N 35°33' E 140°07'0 0.0
2016-Sep-22 12:24N 35°33' E 140°07'  
2016-Sep-15 20:33N 34°36' E 134°53'18 9.0
2016-Sep-15 18:33N 34°37' E 135°15'8 1.2
2016-Sep-15 12:32N 34°43' E 135°21'0 0.0
2016-Sep-15 11:34N 34°43' E 135°21'27 3.9
2016-Sep-15 04:31N 34°20' E 135°02'7 7.2
2016-Sep-15 03:33N 34°14' E 134°60'  

Dump ship's entire track history